Time;durP1;ratioP1;P1;durP2;ratioP2;P2;SDS_P1;SDS_P2;PMS_P1;PMS_P2;Temp;Humidity;BMP_temperature;BMP_pressure;BME280_temperature;BME280_humidity;BME280_pressure;Samples;Min_cycle;Max_cycle;Signal;HPM_P1;HPM_P2
2021/12/15 00:02:10;;;;;;;1.77;1.67;;;5.80;99.90;;;;;;4990689;28;20532;-68
2021/12/15 00:04:36;;;;;;;1.20;1.17;;;5.80;99.90;;;;;;4974402;28;20090;-67
2021/12/15 00:07:02;;;;;;;3.92;3.60;;;5.80;99.90;;;;;;4975270;28;20043;-68
2021/12/15 00:09:29;;;;;;;2.15;1.80;;;5.80;99.90;;;;;;4975692;28;20042;-68
2021/12/15 00:11:55;;;;;;;1.25;1.15;;;5.70;99.90;;;;;;4990226;28;20045;-68
2021/12/15 00:14:21;;;;;;;1.27;1.23;;;5.70;99.90;;;;;;4975211;28;20027;-68
2021/12/15 00:16:49;;;;;;;4.03;2.20;;;5.80;99.90;;;;;;4975031;28;20054;-68
2021/12/15 00:19:16;;;;;;;2.30;2.10;;;5.70;99.90;;;;;;4975227;28;20059;-68
2021/12/15 00:21:43;;;;;;;0.95;0.93;;;5.60;99.90;;;;;;4975459;28;20035;-68
2021/12/15 00:24:09;;;;;;;1.80;1.70;;;5.60;99.90;;;;;;4990023;28;20113;-68
2021/12/15 00:26:36;;;;;;;2.10;2.00;;;5.60;99.90;;;;;;4975020;28;20119;-68
2021/12/15 00:29:05;;;;;;;1.60;1.50;;;5.70;99.90;;;;;;4975134;28;20042;-68
2021/12/15 00:31:32;;;;;;;2.33;2.10;;;5.70;99.90;;;;;;4989672;28;20035;-68
2021/12/15 00:34:01;;;;;;;1.83;1.73;;;5.70;99.90;;;;;;4989898;28;20035;-68
2021/12/15 00:36:27;;;;;;;1.25;1.17;;;5.70;99.90;;;;;;4975032;28;20051;-68
2021/12/15 00:38:53;;;;;;;3.90;2.22;;;5.60;99.90;;;;;;4989846;28;20034;-68
2021/12/15 00:41:19;;;;;;;1.02;1.02;;;5.70;99.90;;;;;;4974819;28;20031;-68
2021/12/15 00:43:45;;;;;;;0.57;0.57;;;5.60;99.90;;;;;;4989917;28;20031;-68
2021/12/15 00:46:11;;;;;;;0.98;0.98;;;5.60;99.90;;;;;;4974512;28;20185;-68
2021/12/15 00:48:37;;;;;;;2.63;0.90;;;5.60;99.90;;;;;;4974746;28;20045;-68
2021/12/15 00:51:03;;;;;;;1.75;1.65;;;5.60;99.90;;;;;;4974795;28;20484;-68
2021/12/15 00:53:29;;;;;;;0.40;0.40;;;5.50;99.90;;;;;;4989715;28;20040;-68
2021/12/15 00:55:55;;;;;;;3.15;2.92;;;5.50;99.90;;;;;;4974868;28;20486;-68
2021/12/15 00:58:21;;;;;;;2.55;2.42;;;5.50;99.90;;;;;;4974426;28;20035;-68
2021/12/15 01:00:57;;;;;;;0.55;0.55;;;5.50;99.90;;;;;;4973260;28;20026;-68
2021/12/15 01:03:22;;;;;;;1.55;1.45;;;5.40;99.90;;;;;;4974685;28;20038;-68
2021/12/15 01:05:55;;;;;;;1.40;1.30;;;5.40;99.90;;;;;;4974570;28;20034;-68
2021/12/15 01:08:28;;;;;;;0.28;0.28;;;5.40;99.90;;;;;;4974287;28;20038;-68
2021/12/15 01:21:42;;;;;;;4.43;1.42;;;5.50;99.90;;;;;;4974232;28;20045;-68
2021/12/15 01:24:09;;;;;;;0.85;0.85;;;5.40;99.90;;;;;;4988832;28;20035;-68
2021/12/15 01:26:35;;;;;;;2.90;2.30;;;5.40;99.90;;;;;;4974066;28;20075;-68
2021/12/15 01:29:01;;;;;;;1.02;0.98;;;5.40;99.90;;;;;;4973138;28;20479;-68
2021/12/15 01:31:27;;;;;;;3.95;3.50;;;5.40;99.90;;;;;;4974124;28;20049;-68
2021/12/15 01:33:53;;;;;;;2.60;2.05;;;5.40;99.90;;;;;;4974007;28;20476;-68
2021/12/15 01:36:21;;;;;;;2.05;1.95;;;5.40;99.90;;;;;;4974146;28;20515;-68
2021/12/15 01:38:48;;;;;;;1.17;1.08;;;5.40;99.90;;;;;;4988816;28;20038;-67
2021/12/15 01:41:22;;;;;;;0.95;0.95;;;5.40;99.90;;;;;;4988838;28;20038;-68
2021/12/15 01:46:56;;;;;;;2.63;2.35;;;5.30;99.90;;;;;;4973528;28;20051;-67
2021/12/15 01:49:38;;;;;;;1.33;1.23;;;5.30;99.90;;;;;;4973881;28;20067;-67
2021/12/15 01:52:20;;;;;;;0.68;0.68;;;5.30;99.90;;;;;;4988708;28;20031;-67
2021/12/15 01:54:53;;;;;;;1.75;1.65;;;5.30;99.90;;;;;;4973693;28;20050;-67
2021/12/15 01:57:21;;;;;;;3.30;1.45;;;5.30;99.90;;;;;;4973581;28;20031;-67
2021/12/15 01:59:49;;;;;;;8.88;2.35;;;5.30;99.90;;;;;;4973881;28;20578;-68
2021/12/15 02:02:18;;;;;;;1.73;1.63;;;5.20;99.90;;;;;;4973683;28;20045;-67
2021/12/15 02:04:45;;;;;;;3.50;2.40;;;5.20;99.90;;;;;;4973558;28;20034;-68
2021/12/15 02:07:16;;;;;;;3.30;2.08;;;5.20;99.90;;;;;;4973296;28;20038;-68
2021/12/15 02:12:25;;;;;;;5.15;2.53;;;5.20;99.90;;;;;;4973393;28;20035;-67
2021/12/15 02:14:52;;;;;;;2.40;2.28;;;5.20;99.90;;;;;;4973709;28;20126;-67
2021/12/15 02:17:20;;;;;;;0.40;0.40;;;5.20;99.90;;;;;;4973290;28;20039;-67
2021/12/15 02:19:46;;;;;;;0.98;0.98;;;5.20;99.90;;;;;;4973677;28;20070;-67
2021/12/15 02:22:13;;;;;;;1.65;1.52;;;5.30;99.90;;;;;;4973154;28;20043;-68
2021/12/15 02:24:41;;;;;;;2.63;0.90;;;5.30;99.90;;;;;;4973696;28;20027;-68
2021/12/15 02:27:08;;;;;;;0.77;0.77;;;5.30;99.90;;;;;;4987950;28;20058;-68
2021/12/15 02:29:39;;;;;;;5.05;2.33;;;5.20;99.90;;;;;;4973224;28;20093;-68
2021/12/15 02:32:23;;;;;;;0.90;0.90;;;5.10;99.90;;;;;;4988306;28;20034;-69
2021/12/15 02:37:33;;;;;;;0.20;0.20;;;5.10;99.90;;;;;;4973215;28;20046;-69
2021/12/15 02:40:09;;;;;;;3.10;1.48;;;5.00;99.90;;;;;;4974192;28;20026;-69
2021/12/15 02:42:45;;;;;;;0.47;0.47;;;5.00;99.90;;;;;;4991399;28;20038;-68
2021/12/15 02:45:18;;;;;;;0.68;0.68;;;5.00;99.90;;;;;;4991690;28;20395;-66
2021/12/15 02:47:46;;;;;;;35.50;5.20;;;5.00;99.90;;;;;;4976666;28;20050;-68
2021/12/15 02:50:18;;;;;;;0.77;0.77;;;5.00;99.90;;;;;;4976889;28;20125;-66
2021/12/15 02:52:44;;;;;;;17.83;5.68;;;5.00;99.90;;;;;;4977442;28;20035;-67
2021/12/15 02:55:12;;;;;;;3.50;3.20;;;5.00;99.90;;;;;;4976776;28;20058;-67
2021/12/15 02:57:39;;;;;;;0.50;0.50;;;5.00;99.90;;;;;;4976855;28;20506;-67
2021/12/15 03:00:23;;;;;;;2.63;1.65;;;5.00;99.90;;;;;;4977092;28;20034;-67
2021/12/15 03:05:48;;;;;;;1.00;1.00;;;5.00;99.90;;;;;;4976813;28;20046;-68
2021/12/15 03:08:35;;;;;;;0.93;0.93;;;4.90;99.90;;;;;;4976601;28;20057;-67
2021/12/15 03:16:30;;;;;;;4.47;2.65;;;4.70;99.90;;;;;;4976616;28;20033;-67
2021/12/15 03:18:58;;;;;;;4.60;1.45;;;4.70;99.90;;;;;;4976680;28;20045;-68
2021/12/15 03:21:26;;;;;;;2.67;2.47;;;4.70;99.90;;;;;;4991061;28;20077;-68
2021/12/15 03:24:28;;;;;;;1.67;1.55;;;4.70;99.90;;;;;;4976325;28;20039;-67
2021/12/15 03:27:02;;;;;;;0.65;0.65;;;4.70;99.90;;;;;;4975987;28;20384;-68
2021/12/15 03:33:28;;;;;;;1.50;1.27;;;4.70;99.90;;;;;;4976264;28;20480;-67
2021/12/15 03:35:21;;;;;;;0.57;0.57;;;4.60;99.90;;;;;;4976380;28;20062;-67
2021/12/15 03:37:56;;;;;;;1.23;1.13;;;4.60;99.90;;;;;;4990256;28;20031;-67
2021/12/15 03:40:42;;;;;;;0.55;0.55;;;4.60;99.90;;;;;;4991128;28;20391;-67
2021/12/15 03:43:16;;;;;;;3.47;2.63;;;4.60;99.90;;;;;;4991106;28;20038;-68
2021/12/15 03:45:52;;;;;;;0.40;0.40;;;4.50;99.90;;;;;;4990819;28;20035;-68
2021/12/15 03:48:24;;;;;;;0.47;0.47;;;4.50;99.90;;;;;;4990205;28;20035;-68
2021/12/15 03:50:53;;;;;;;1.55;1.40;;;4.50;99.90;;;;;;4975577;28;20027;-67
2021/12/15 03:53:19;;;;;;;0.50;0.47;;;4.50;99.90;;;;;;4989846;28;20042;-68
2021/12/15 03:55:46;;;;;;;4.18;2.17;;;4.50;99.90;;;;;;4976018;28;20392;-67
2021/12/15 03:58:14;;;;;;;0.52;0.52;;;4.50;99.90;;;;;;4975971;28;20037;-68
2021/12/15 04:00:59;;;;;;;2.58;2.38;;;4.50;99.90;;;;;;4975781;28;20041;-67
2021/12/15 04:03:37;;;;;;;1.10;1.00;;;4.40;99.90;;;;;;4989187;28;20408;-67
2021/12/15 04:06:08;;;;;;;1.13;1.10;;;4.50;99.90;;;;;;4975805;28;20085;-67
2021/12/15 04:08:35;;;;;;;;;;;4.40;99.90;;;;;;4990828;28;20027;-68
2021/12/15 04:11:05;;;;;;;0.10;0.10;;;4.40;99.90;;;;;;4975449;28;20494;-68
2021/12/15 04:13:32;;;;;;;0.43;0.43;;;4.40;99.90;;;;;;4974140;28;20388;-67
2021/12/15 04:16:04;;;;;;;0.43;0.43;;;4.40;99.90;;;;;;4975719;28;20041;-67
2021/12/15 04:18:31;;;;;;;0.15;0.15;;;4.30;99.90;;;;;;4975178;28;20042;-67
2021/12/15 04:20:58;;;;;;;0.38;0.38;;;4.30;99.90;;;;;;4975283;28;20037;-67
2021/12/15 04:23:24;;;;;;;0.40;0.40;;;4.20;99.90;;;;;;4973860;28;20507;-67
2021/12/15 04:25:58;;;;;;;0.75;0.75;;;4.20;99.90;;;;;;4990499;28;20038;-67
2021/12/15 04:28:34;;;;;;;1.00;1.00;;;4.10;99.90;;;;;;4989631;28;20060;-67
2021/12/15 04:31:07;;;;;;;6.18;2.38;;;4.10;99.90;;;;;;4975282;28;20491;-68
2021/12/15 04:33:54;;;;;;;1.00;1.00;;;4.10;99.90;;;;;;4989698;28;20062;-67
2021/12/15 04:36:23;;;;;;;1.35;1.25;;;4.10;99.90;;;;;;4989783;28;20034;-67
2021/12/15 04:38:51;;;;;;;0.63;0.63;;;4.10;99.90;;;;;;4973762;28;20034;-67
2021/12/15 04:41:19;;;;;;;0.52;0.52;;;4.00;99.90;;;;;;4974785;28;20031;-68
2021/12/15 04:43:56;;;;;;;0.40;0.40;;;4.00;99.90;;;;;;4988101;28;20121;-68
2021/12/15 04:46:26;;;;;;;1.50;1.40;;;3.90;99.90;;;;;;4971230;28;20042;-67
2021/12/15 04:48:52;;;;;;;1.63;1.52;;;3.90;99.90;;;;;;4973634;28;20035;-67
2021/12/15 04:51:19;;;;;;;0.73;0.73;;;3.90;99.90;;;;;;4974593;28;20477;-67
2021/12/15 04:53:46;;;;;;;0.40;0.40;;;3.90;99.90;;;;;;4974075;28;20038;-68
2021/12/15 04:56:13;;;;;;;0.00;0.00;;;4.00;99.90;;;;;;4974754;28;20035;-68
2021/12/15 04:58:39;;;;;;;0.35;0.35;;;4.20;99.90;;;;;;4989669;28;20031;-67
2021/12/15 05:01:09;;;;;;;1.40;1.33;;;4.10;99.90;;;;;;4973298;28;20395;-65
2021/12/15 05:03:38;;;;;;;3.00;2.43;;;4.10;99.90;;;;;;4973054;28;20035;-64
2021/12/15 05:06:05;;;;;;;1.42;1.33;;;4.10;99.90;;;;;;4973349;28;20031;-64
2021/12/15 05:08:32;;;;;;;26.77;1.85;;;4.10;99.90;;;;;;4974259;28;20043;-63
2021/12/15 05:10:59;;;;;;;1.17;0.85;;;4.00;99.90;;;;;;4974195;28;20441;-65
2021/12/15 05:13:27;;;;;;;0.98;0.93;;;3.90;99.90;;;;;;4974050;28;20054;-66
2021/12/15 05:15:54;;;;;;;1.33;1.23;;;4.00;99.90;;;;;;4974553;28;20034;-66
2021/12/15 05:18:21;;;;;;;4.30;4.00;;;3.90;99.90;;;;;;4973009;28;20037;-67
2021/12/15 05:20:52;;;;;;;1.88;1.45;;;3.80;99.90;;;;;;4973979;28;20131;-66
2021/12/15 05:23:18;;;;;;;0.63;0.63;;;3.80;99.90;;;;;;4973266;28;20049;-64
2021/12/15 05:25:46;;;;;;;3.95;2.45;;;3.60;99.90;;;;;;4974183;28;20565;-75
2021/12/15 05:28:13;;;;;;;0.10;0.10;;;3.50;99.90;;;;;;4956786;28;20034;-69
2021/12/15 05:30:40;;;;;;;1.63;0.55;;;3.30;99.90;;;;;;4974197;28;20035;-69
2021/12/15 05:33:07;;;;;;;2.47;2.33;;;3.30;99.90;;;;;;4972790;28;20053;-69
2021/12/15 05:35:36;;;;;;;4.95;4.50;;;3.60;99.90;;;;;;4972936;28;20069;-69
2021/12/15 05:38:04;;;;;;;26.13;6.50;;;3.60;99.90;;;;;;4972796;28;20037;-69
2021/12/15 05:40:31;;;;;;;31.00;7.22;;;3.70;99.90;;;;;;4973704;28;20067;-69
2021/12/15 05:43:02;;;;;;;5.88;5.00;;;3.80;99.90;;;;;;4974006;28;20030;-69
2021/12/15 05:45:35;;;;;;;11.07;5.97;;;3.80;99.90;;;;;;4970667;28;20030;-69
2021/12/15 05:48:03;;;;;;;12.18;3.72;;;3.80;99.90;;;;;;4962753;28;20070;-69
2021/12/15 05:50:30;;;;;;;0.63;0.63;;;3.80;99.90;;;;;;4954342;28;20412;-69
2021/12/15 05:52:58;;;;;;;14.95;2.15;;;3.50;99.90;;;;;;4968828;28;20038;-69
2021/12/15 05:55:24;;;;;;;1.92;1.83;;;3.50;99.90;;;;;;4953463;29;20488;-68
2021/12/15 05:57:50;;;;;;;2.72;1.95;;;3.60;99.90;;;;;;4954260;29;20039;-69
2021/12/15 06:00:23;;;;;;;0.57;0.57;;;3.70;99.90;;;;;;4968956;28;20035;-70
2021/12/15 06:02:49;;;;;;;0.75;0.75;;;3.80;99.90;;;;;;4964117;28;20085;-69
2021/12/15 06:05:18;;;;;;;0.10;0.10;;;3.90;99.90;;;;;;4973155;28;20045;-69
2021/12/15 06:07:47;;;;;;;0.65;0.65;;;4.00;99.90;;;;;;4972697;28;20108;-69
2021/12/15 06:10:21;;;;;;;0.60;0.60;;;4.10;99.90;;;;;;4983218;28;20038;-69
2021/12/15 06:12:50;;;;;;;0.45;0.45;;;4.20;99.90;;;;;;4972950;28;20041;-69
2021/12/15 06:15:23;;;;;;;0.65;0.65;;;4.20;99.90;;;;;;4976695;28;20038;-68
2021/12/15 06:18:13;;;;;;;1.65;1.55;;;4.20;99.90;;;;;;4979604;28;20133;-68
2021/12/15 06:20:40;;;;;;;1.35;1.25;;;4.20;99.90;;;;;;4979640;28;20046;-68
2021/12/15 06:23:11;;;;;;;10.60;4.28;;;4.20;99.90;;;;;;4962380;28;20512;-67
2021/12/15 06:25:39;;;;;;;;;;;4.20;99.90;;;;;;4980254;28;20526;-67
2021/12/15 06:28:06;;;;;;;2.08;1.98;;;4.30;99.90;;;;;;4979873;28;19961;-68
2021/12/15 06:30:34;;;;;;;1.13;1.08;;;4.30;99.90;;;;;;4961824;28;20519;-68
2021/12/15 06:33:00;;;;;;;3.72;2.28;;;4.30;99.90;;;;;;4978475;28;20050;-68
2021/12/15 06:35:26;;;;;;;3.45;2.95;;;4.30;99.90;;;;;;4979891;28;20488;-68
2021/12/15 06:37:52;;;;;;;0.10;0.10;;;4.40;99.90;;;;;;4994643;28;20069;-67
2021/12/15 06:40:18;;;;;;;4.15;2.45;;;4.40;99.90;;;;;;4978219;28;20110;-68
2021/12/15 06:42:44;;;;;;;0.20;0.20;;;4.50;99.90;;;;;;4994619;28;20031;-67
2021/12/15 06:45:17;;;;;;;0.47;0.47;;;4.50;99.90;;;;;;4979198;28;20031;-67
2021/12/15 06:58:37;;;;;;;18.88;2.08;;;4.70;99.90;;;;;;4979829;28;20034;-68
2021/12/15 07:01:04;;;;;;;1.50;1.42;;;4.80;99.90;;;;;;4979410;28;20490;-68
2021/12/15 07:03:29;;;;;;;5.20;3.88;;;4.80;99.90;;;;;;4979469;28;20027;-68
2021/12/15 07:05:56;;;;;;;2.13;1.85;;;4.80;99.90;;;;;;4979530;28;20073;-68
2021/12/15 07:08:24;;;;;;;4.45;1.83;;;4.80;99.90;;;;;;4979308;28;20031;-67
2021/12/15 07:10:52;;;;;;;0.63;0.63;;;4.80;99.90;;;;;;4962198;28;20038;-67
2021/12/15 07:13:20;;;;;;;2.28;1.65;;;4.90;99.90;;;;;;4978182;28;20475;-68
2021/12/15 07:15:47;;;;;;;0.68;0.68;;;5.00;99.90;;;;;;4979431;28;20031;-68
2021/12/15 07:18:25;;;;;;;1.13;1.13;;;4.90;99.90;;;;;;4978406;28;20042;-68
2021/12/15 07:20:52;;;;;;;0.35;0.35;;;5.00;99.90;;;;;;4978000;28;20038;-68
2021/12/15 07:23:22;;;;;;;1.17;0.73;;;4.90;99.90;;;;;;4979208;28;20027;-69
2021/12/15 07:25:50;;;;;;;0.63;0.63;;;4.90;99.90;;;;;;4978818;28;20034;-69
2021/12/15 07:28:20;;;;;;;0.50;0.50;;;4.90;99.90;;;;;;4976235;28;20069;-68
2021/12/15 07:30:47;;;;;;;1.35;1.27;;;5.00;99.90;;;;;;4975858;28;20506;-66
2021/12/15 07:33:13;;;;;;;1.73;1.45;;;5.00;99.90;;;;;;4976509;28;20038;-69
2021/12/15 07:35:40;;;;;;;1.48;1.38;;;5.00;99.90;;;;;;4974664;28;20046;-69
2021/12/15 07:38:07;;;;;;;2.50;0.50;;;5.10;99.90;;;;;;4975800;28;20404;-66
2021/12/15 07:40:33;;;;;;;0.98;0.88;;;4.90;99.90;;;;;;4976029;28;20035;-69
2021/12/15 07:43:10;;;;;;;2.15;1.95;;;4.90;99.90;;;;;;4974765;28;20109;-68
2021/12/15 07:45:47;;;;;;;0.20;0.20;;;4.60;99.90;;;;;;4975360;28;20034;-69
2021/12/15 07:48:16;;;;;;;0.55;0.55;;;4.80;99.90;;;;;;4975209;28;20034;-68
2021/12/15 07:50:45;;;;;;;0.50;0.50;;;4.90;99.90;;;;;;4974414;28;20023;-69
2021/12/15 07:53:13;;;;;;;1.60;0.73;;;4.90;99.90;;;;;;4975748;28;20043;-69
2021/12/15 07:55:39;;;;;;;0.90;0.55;;;4.90;99.90;;;;;;4974317;28;20043;-69
2021/12/15 07:58:08;;;;;;;2.00;1.15;;;4.90;99.90;;;;;;4975970;28;20035;-69
2021/12/15 08:00:41;;;;;;;9.52;2.05;;;5.00;99.90;;;;;;4975447;28;20038;-69
2021/12/15 08:03:07;;;;;;;0.17;0.17;;;5.10;99.90;;;;;;4975927;28;20480;-69
2021/12/15 08:05:35;;;;;;;0.30;0.30;;;5.20;99.90;;;;;;4975552;28;20126;-69
2021/12/15 08:08:01;;;;;;;0.30;0.30;;;5.30;99.90;;;;;;4975787;28;20030;-69
2021/12/15 08:10:27;;;;;;;1.58;1.48;;;5.40;99.90;;;;;;4974397;28;20027;-69
2021/12/15 08:12:53;;;;;;;4.03;1.33;;;5.30;99.90;;;;;;4975374;28;20063;-68
2021/12/15 08:15:20;;;;;;;2.50;1.40;;;5.30;99.90;;;;;;4975608;28;20439;-68
2021/12/15 08:17:50;;;;;;;1.08;0.63;;;5.30;99.90;;;;;;4973859;28;20078;-68
2021/12/15 08:20:22;;;;;;;3.40;1.10;;;5.30;99.90;;;;;;4975779;28;20085;-68
2021/12/15 08:22:49;;;;;;;0.70;0.60;;;5.40;99.90;;;;;;4975320;28;20031;-69
2021/12/15 08:25:17;;;;;;;1.90;0.85;;;5.50;99.90;;;;;;4974062;28;20023;-69
2021/12/15 08:27:44;;;;;;;1.48;1.38;;;5.50;99.90;;;;;;4974982;28;20034;-69
2021/12/15 08:30:21;;;;;;;5.50;3.88;;;5.60;99.90;;;;;;4975005;28;20384;-69
2021/12/15 08:32:55;;;;;;;0.35;0.35;;;5.70;99.90;;;;;;4973871;28;20065;-69
2021/12/15 08:35:27;;;;;;;0.47;0.47;;;5.70;99.90;;;;;;4975336;28;20150;-69
2021/12/15 08:37:55;;;;;;;0.60;0.60;;;5.60;99.90;;;;;;4974718;28;20395;-68
2021/12/15 08:40:23;;;;;;;1.00;1.00;;;5.50;99.90;;;;;;4974156;28;20035;-68
2021/12/15 08:42:49;;;;;;;0.47;0.47;;;5.60;99.90;;;;;;4975042;28;20041;-68
2021/12/15 08:45:16;;;;;;;0.30;0.30;;;5.60;99.90;;;;;;4973639;28;20034;-68
2021/12/15 08:47:43;;;;;;;4.03;3.20;;;5.60;99.90;;;;;;4973144;28;20077;-69
2021/12/15 08:50:16;;;;;;;1.27;1.20;;;5.60;99.90;;;;;;4974714;28;20031;-68
2021/12/15 08:52:42;;;;;;;1.52;1.30;;;5.70;99.90;;;;;;4974502;28;20031;-69
2021/12/15 08:55:09;;;;;;;0.20;0.20;;;5.70;99.90;;;;;;4974688;28;20567;-69
2021/12/15 08:57:36;;;;;;;0.10;0.10;;;5.70;99.90;;;;;;4957261;28;20022;-69
2021/12/15 09:00:07;;;;;;;1.00;0.90;;;5.70;99.90;;;;;;4974397;28;20503;-69
2021/12/15 09:02:35;;;;;;;;;;;5.70;99.90;;;;;;4974483;28;20500;-69
2021/12/15 09:05:00;;;;;;;0.98;0.98;;;5.70;99.90;;;;;;4974750;28;19921;-69
2021/12/15 09:07:27;;;;;;;1.35;1.27;;;5.90;99.90;;;;;;4974581;28;20040;-69
2021/12/15 09:09:52;;;;;;;5.22;2.45;;;6.00;99.90;;;;;;4974057;28;20034;-67
2021/12/15 09:12:19;;;;;;;0.43;0.43;;;6.10;99.90;;;;;;4974626;28;20042;-69
2021/12/15 09:14:46;;;;;;;0.55;0.55;;;6.10;99.90;;;;;;4973149;28;20034;-69
2021/12/15 09:17:13;;;;;;;2.35;2.08;;;6.10;99.90;;;;;;4972940;28;20039;-69
2021/12/15 09:19:39;;;;;;;0.50;0.50;;;6.20;99.90;;;;;;4973971;28;20038;-68
2021/12/15 09:22:05;;;;;;;1.27;1.17;;;6.20;99.90;;;;;;4973045;28;20041;-68
2021/12/15 09:24:31;;;;;;;1.60;1.00;;;6.30;99.90;;;;;;4956804;28;20038;-68
2021/12/15 09:26:58;;;;;;;2.38;1.75;;;6.40;99.90;;;;;;4974224;28;20039;-68
2021/12/15 09:29:24;;;;;;;1.20;1.17;;;6.50;99.90;;;;;;4972551;28;20034;-68
2021/12/15 09:31:51;;;;;;;0.82;0.82;;;6.60;99.90;;;;;;4973633;28;20035;-68
2021/12/15 09:34:18;;;;;;;0.57;0.57;;;6.70;99.90;;;;;;4972877;28;20380;-67
2021/12/15 09:36:48;;;;;;;4.07;2.15;;;6.60;99.90;;;;;;4974072;28;20034;-69
2021/12/15 09:39:18;;;;;;;1.88;1.77;;;6.70;99.90;;;;;;4974125;28;20069;-68
2021/12/15 09:41:44;;;;;;;5.70;0.98;;;6.70;99.90;;;;;;4956910;28;20047;-69
2021/12/15 09:44:15;;;;;;;0.28;0.28;;;6.70;99.90;;;;;;4973695;28;20049;-68
2021/12/15 10:03:04;;;;;;;1.02;1.02;;;7.30;99.90;;;;;;4973408;28;20034;-67
2021/12/15 10:19:40;;;;;;;0.95;0.93;;;7.50;99.90;;;;;;4973179;28;20400;-67
2021/12/15 10:22:24;;;;;;;1.52;1.42;;;7.50;99.90;;;;;;4972289;28;20469;-68
2021/12/15 10:25:10;;;;;;;0.60;0.60;;;7.60;99.90;;;;;;4972005;28;20035;-68
2021/12/15 10:27:54;;;;;;;2.40;2.20;;;7.50;99.90;;;;;;4973099;28;20031;-68
2021/12/15 10:30:38;;;;;;;12.73;2.42;;;7.70;99.90;;;;;;4972997;28;20090;-68
2021/12/15 10:33:12;;;;;;;2.45;2.25;;;7.50;99.90;;;;;;4973299;28;20038;-67
2021/12/15 10:35:48;;;;;;;27.45;3.60;;;7.30;99.90;;;;;;4972004;28;20062;-67
2021/12/15 10:38:43;;;;;;;4.18;2.20;;;7.40;99.90;;;;;;4973471;28;20098;-68
2021/12/15 10:41:27;;;;;;;3.30;1.50;;;7.40;99.90;;;;;;4958453;28;20043;-67
2021/12/15 10:44:01;;;;;;;0.90;0.90;;;7.50;99.90;;;;;;4955900;28;20034;-67
2021/12/15 10:46:55;;;;;;;0.10;0.10;;;7.50;99.90;;;;;;4971831;28;20399;-68
2021/12/15 10:49:27;;;;;;;2.00;1.90;;;7.60;99.90;;;;;;4973151;28;20031;-68
2021/12/15 10:52:09;;;;;;;5.78;3.72;;;7.60;99.90;;;;;;4971666;28;20491;-69
2021/12/15 10:54:40;;;;;;;0.90;0.90;;;7.70;99.90;;;;;;4973167;28;20517;-69
2021/12/15 10:57:17;;;;;;;1.55;1.45;;;7.70;99.90;;;;;;4971939;28;20034;-68
2021/12/15 10:59:51;;;;;;;0.35;0.35;;;7.70;99.90;;;;;;4972523;28;20105;-68
2021/12/15 11:02:29;;;;;;;3.25;2.97;;;7.70;99.90;;;;;;4975717;28;20480;-68
2021/12/15 11:05:08;;;;;;;6.15;1.23;;;7.80;99.90;;;;;;4976499;28;20027;-69
2021/12/15 11:07:46;;;;;;;0.55;0.55;;;7.90;99.90;;;;;;4976941;28;20050;-68
2021/12/15 11:10:35;;;;;;;0.40;0.40;;;8.10;99.90;;;;;;4960953;28;20039;-66
2021/12/15 11:13:13;;;;;;;0.52;0.52;;;8.20;99.90;;;;;;4975482;28;20038;-67
2021/12/15 11:15:48;;;;;;;2.20;1.52;;;8.30;99.90;;;;;;4958649;28;20049;-68
2021/12/15 11:18:21;;;;;;;0.60;0.60;;;8.40;99.90;;;;;;4975797;28;20034;-68
2021/12/15 11:20:54;;;;;;;0.57;0.57;;;8.70;99.90;;;;;;4976057;28;20526;-67
2021/12/15 11:23:23;;;;;;;6.50;1.48;;;8.80;99.90;;;;;;4976007;28;20074;-67
2021/12/15 11:25:53;;;;;;;1.02;1.00;;;8.90;99.90;;;;;;4975774;28;20034;-67
2021/12/15 11:28:43;;;;;;;3.45;2.95;;;9.00;99.90;;;;;;4975674;28;20074;-67
2021/12/15 11:31:14;;;;;;;1.63;1.52;;;9.20;99.90;;;;;;4974269;28;20039;-67
2021/12/15 11:33:49;;;;;;;1.70;1.60;;;9.30;99.90;;;;;;4975706;28;20037;-68
2021/12/15 11:36:43;;;;;;;0.65;0.65;;;9.30;99.90;;;;;;4975648;28;20464;-68
2021/12/15 11:39:16;;;;;;;0.73;0.73;;;9.20;99.90;;;;;;4974243;28;20023;-68
2021/12/15 11:41:53;;;;;;;0.38;0.38;;;9.10;99.90;;;;;;4975433;28;20125;-68
2021/12/15 11:44:22;;;;;;;0.80;0.80;;;8.90;99.90;;;;;;4975088;28;20522;-68
2021/12/15 11:46:58;;;;;;;0.20;0.20;;;8.80;99.90;;;;;;4975002;28;20129;-68
2021/12/15 11:49:29;;;;;;;1.20;1.02;;;8.70;99.90;;;;;;4973982;28;20075;-67
2021/12/15 11:52:02;;;;;;;;;;;8.90;99.90;;;;;;4974312;28;20031;-67
2021/12/15 11:54:34;;;;;;;2.83;2.33;;;9.10;99.90;;;;;;4975131;28;19918;-68
2021/12/15 11:57:05;;;;;;;0.35;0.35;;;9.00;99.90;;;;;;4975011;28;20026;-67
2021/12/15 11:59:39;;;;;;;0.32;0.32;;;9.30;99.90;;;;;;4973680;28;20101;-67
2021/12/15 12:02:28;;;;;;;1.85;1.10;;;9.50;99.90;;;;;;4975328;28;20042;-67
2021/12/15 12:04:57;;;;;;;1.85;1.67;;;9.30;99.90;;;;;;4974853;28;20035;-67
2021/12/15 12:07:42;;;;;;;0.20;0.20;;;9.30;99.90;;;;;;4973824;28;20495;-67
2021/12/15 12:10:26;;;;;;;0.90;0.85;;;9.30;99.90;;;;;;4973366;28;20456;-68
2021/12/15 12:13:13;;;;;;;0.28;0.28;;;9.60;99.90;;;;;;4974081;28;20038;-67
2021/12/15 12:15:43;;;;;;;5.15;2.08;;;9.50;99.90;;;;;;4974653;28;20045;-67
2021/12/15 12:18:20;;;;;;;0.83;0.83;;;9.20;99.90;;;;;;4957773;28;20042;-67
2021/12/15 12:20:51;;;;;;;0.47;0.47;;;9.10;99.90;;;;;;4974434;28;20456;-67
2021/12/15 12:23:25;;;;;;;0.32;0.32;;;9.30;99.90;;;;;;4974689;28;20042;-67
2021/12/15 12:26:01;;;;;;;0.15;0.15;;;9.20;99.90;;;;;;4973390;28;20126;-66
2021/12/15 12:28:31;;;;;;;0.57;0.57;;;9.30;99.90;;;;;;4973481;28;20093;-67
2021/12/15 12:31:03;;;;;;;0.28;0.28;;;9.30;99.90;;;;;;4972540;28;20058;-67
2021/12/15 12:33:29;;;;;;;0.55;0.32;;;9.30;99.90;;;;;;4974548;28;20395;-67
2021/12/15 12:36:04;;;;;;;0.88;0.88;;;9.20;99.90;;;;;;4974551;28;20118;-67
2021/12/15 12:38:37;;;;;;;0.45;0.45;;;9.20;99.90;;;;;;4973420;28;20030;-67
2021/12/15 12:41:14;;;;;;;0.30;0.30;;;9.30;99.90;;;;;;4957381;28;20035;-67
2021/12/15 12:43:47;;;;;;;0.38;0.38;;;9.30;99.90;;;;;;4974253;28;20077;-68
2021/12/15 12:46:33;;;;;;;2.55;0.57;;;9.30;99.90;;;;;;4973936;28;20046;-68
2021/12/15 13:00:27;;;;;;;0.57;0.57;;;9.10;99.90;;;;;;4973940;28;20173;-67
2021/12/15 13:03:12;;;;;;;0.20;0.20;;;9.30;99.90;;;;;;4973538;28;20049;-68
2021/12/15 13:05:56;;;;;;;0.00;0.00;;;9.20;99.90;;;;;;4973336;28;20077;-67
2021/12/15 13:09:01;;;;;;;0.10;0.10;;;9.40;99.90;;;;;;4973741;28;20451;-68
2021/12/15 13:11:38;;;;;;;0.10;0.10;;;9.80;99.90;;;;;;4976346;28;20055;-67
2021/12/15 13:14:33;;;;;;;1.27;1.17;;;9.90;99.90;;;;;;4973383;28;20037;-68
2021/12/15 13:17:08;;;;;;;0.52;0.52;;;10.20;99.90;;;;;;4975548;28;20053;-68
2021/12/15 13:19:44;;;;;;;1.08;1.00;;;10.50;99.90;;;;;;4957594;28;20122;-68
2021/12/15 13:31:03;;;;;;;0.13;0.13;;;10.70;99.90;;;;;;4973497;28;20059;-68
2021/12/15 13:33:33;;;;;;;0.63;0.50;;;10.40;99.90;;;;;;4973314;28;20038;-68
2021/12/15 13:36:25;;;;;;;0.57;0.57;;;10.00;99.90;;;;;;4973140;28;20061;-68
2021/12/15 13:39:03;;;;;;;2.75;2.15;;;10.00;99.90;;;;;;4972167;28;20462;-68
2021/12/15 13:41:41;;;;;;;3.47;1.33;;;10.00;99.90;;;;;;4972029;28;20121;-68
2021/12/15 13:44:46;;;;;;;0.85;0.63;;;9.80;99.90;;;;;;4971816;28;20110;-69
2021/12/15 13:47:17;;;;;;;1.35;1.25;;;9.90;99.90;;;;;;4971557;28;20050;-68
2021/12/15 13:50:00;;;;;;;2.03;1.00;;;9.70;99.90;;;;;;4973025;28;20027;-68
2021/12/15 13:52:42;;;;;;;0.35;0.35;;;9.50;99.90;;;;;;4973200;28;20097;-68
2021/12/15 13:55:14;;;;;;;2.65;2.45;;;9.30;99.90;;;;;;4971792;28;20041;-69
2021/12/15 13:58:09;;;;;;;1.35;0.75;;;9.20;99.90;;;;;;4973211;28;20034;-69
2021/12/15 14:00:54;;;;;;;0.40;0.40;;;9.40;99.90;;;;;;4974442;28;20117;-68
2021/12/15 14:03:36;;;;;;;0.20;0.20;;;9.50;99.90;;;;;;4973063;28;20109;-68
2021/12/15 14:06:11;;;;;;;0.50;0.50;;;9.40;99.90;;;;;;4971708;28;20528;-68
2021/12/15 14:08:46;;;;;;;0.22;0.22;;;9.30;99.90;;;;;;4955557;28;20043;-69
2021/12/15 14:11:20;;;;;;;0.63;0.63;;;9.20;99.90;;;;;;4971904;28;20496;-68
2021/12/15 14:14:27;;;;;;;3.40;0.88;;;9.10;99.90;;;;;;4973019;28;20058;-68
2021/12/15 14:16:57;;;;;;;0.05;0.05;;;9.20;99.90;;;;;;4982087;28;20042;-68
2021/12/15 14:19:36;;;;;;;0.57;0.55;;;9.10;99.90;;;;;;4971433;28;20062;-68
2021/12/15 14:22:09;;;;;;;0.13;0.13;;;9.10;99.90;;;;;;4972768;28;20184;-68
2021/12/15 14:24:38;;;;;;;2.17;1.45;;;9.20;99.90;;;;;;4955955;28;20035;-68
2021/12/15 14:27:04;;;;;;;0.30;0.30;;;9.20;99.90;;;;;;4971329;28;20118;-68
2021/12/15 14:29:31;;;;;;;0.00;0.00;;;9.30;99.90;;;;;;4972576;28;20035;-69
2021/12/15 14:32:01;;;;;;;0.35;0.35;;;9.20;99.90;;;;;;4972805;28;20135;-69
2021/12/15 14:34:35;;;;;;;2.83;1.75;;;9.30;99.90;;;;;;4971407;28;20038;-69
2021/12/15 14:37:29;;;;;;;1.27;1.17;;;9.20;99.90;;;;;;4973949;28;20035;-69
2021/12/15 14:39:56;;;;;;;0.00;0.00;;;9.00;99.90;;;;;;4974943;28;20039;-69
2021/12/15 14:42:28;;;;;;;0.00;0.00;;;8.90;99.90;;;;;;4975201;28;20035;-66
2021/12/15 14:44:59;;;;;;;0.65;0.65;;;8.90;99.90;;;;;;4975158;28;20030;-66
2021/12/15 14:47:31;;;;;;;;;;;8.80;99.90;;;;;;4975425;28;20059;-67
2021/12/15 14:50:11;;;;;;;;;;;8.80;99.90;;;;;;4976620;28;19922;-67
2021/12/15 14:52:52;;;;;;;1.25;1.05;;;8.80;99.90;;;;;;4989327;28;19917;-67
2021/12/15 14:55:24;;;;;;;0.10;0.10;;;8.80;99.90;;;;;;4976493;28;20031;-69